Green Fast — ZDHA9 — position and weather

sailwx.info

Track history (hours):
 
Tides and Currents Weather Stations Pressure Air Temp Water Temp Dewpoint Dewpoint Depression Visibility Wind Speed Wind Dir Waves Ship Positions

Green Fast

Last reported at 2015-Jul-04 18:33 UTC. Time now 2015-Jul-04 19:00 UTC.
Position N 43°25' E 004°50'.

Length 118 m; draft 6.5 m.

Type: Cargo ship. MMSI: 236294000.

Date/timePositionNaut miles runAvg speedWind from/ knotsBaromVisibWave heightAir tempDewpointWater temp
2015-Jul-04 18:33N 43°25' E 004°50'0 0.0
2015-Jul-04 17:33N 43°25' E 004°50'0 0.0
2015-Jul-04 16:33N 43°25' E 004°50'0 0.0
2015-Jul-04 15:33N 43°25' E 004°50'0 0.0
2015-Jul-04 14:33N 43°25' E 004°50'0 0.0
2015-Jul-04 13:33N 43°25' E 004°50'0 0.0
2015-Jul-04 12:33N 43°25' E 004°50'0 0.0
2015-Jul-04 11:33N 43°25' E 004°50'0 0.0
2015-Jul-04 10:33N 43°25' E 004°50'0 0.0
2015-Jul-04 09:33N 43°25' E 004°50'0 0.0
2015-Jul-04 08:33N 43°25' E 004°50'0 0.0
2015-Jul-04 07:33N 43°25' E 004°50'0 0.0
2015-Jul-04 06:33N 43°25' E 004°50'0 0.0
2015-Jul-04 05:33N 43°25' E 004°50'0 0.0
2015-Jul-04 04:33N 43°25' E 004°50'0 0.4
2015-Jul-04 03:33N 43°25' E 004°51'7 7.5
2015-Jul-04 02:33N 43°20' E 004°59'8 8.3
2015-Jul-04 01:33N 43°12' E 005°03'8 8.4
2015-Jul-04 00:33N 43°08' E 005°13'8 8.3
2015-Jul-03 23:33N 43°04' E 005°23'8 8.1
2015-Jul-03 22:33N 43°01' E 005°33'8 8.1
2015-Jul-03 21:33N 42°57' E 005°43'8 8.0
2015-Jul-03 20:33N 42°54' E 005°53'8 8.2
2015-Jul-03 19:33N 42°50' E 006°03'8 8.4
2015-Jul-03 18:33N 42°47' E 006°13'8 8.2
2015-Jul-03 17:33N 42°46' E 006°24'8 7.9
2015-Jul-03 16:33N 42°49' E 006°35'8 8.3
2015-Jul-03 15:33N 42°54' E 006°44'8 8.2
2015-Jul-03 14:33N 42°59' E 006°53'8 8.3
2015-Jul-03 13:33N 43°04' E 007°02'8 8.3
2015-Jul-03 12:33N 43°09' E 007°11'8 8.3
2015-Jul-03 11:33N 43°14' E 007°20'8 8.4
2015-Jul-03 10:33N 43°18' E 007°30'8 8.5
2015-Jul-03 09:33N 43°23' E 007°39'8 8.3
2015-Jul-03 08:33N 43°28' E 007°48'8 8.4
2015-Jul-03 07:33N 43°31' E 007°59'8 8.4
2015-Jul-03 06:33N 43°34' E 008°10'9 8.9
2015-Jul-03 05:33N 43°37' E 008°22'9 8.8
2015-Jul-03 04:33N 43°40' E 008°33'9 9.0
2015-Jul-03 03:33N 43°43' E 008°45'9 8.7
2015-Jul-03 02:33N 43°46' E 008°56'8 8.2
2015-Jul-03 01:33N 43°48' E 009°07'8 8.1
2015-Jul-03 00:33N 43°51' E 009°18'8 7.9
2015-Jul-02 23:33N 43°53' E 009°28'8 8.3
2015-Jul-02 22:33N 43°56' E 009°39'8 8.4
2015-Jul-02 21:33N 43°59' E 009°50'7 7.0
2015-Jul-02 20:33N 44°06' E 009°51'0 0.1
2015-Jul-02 19:32N 44°07' E 009°51'0 0.0
2015-Jul-02 18:32N 44°07' E 009°51'0 0.0
2015-Jul-02 17:32N 44°07' E 009°51'0 0.0
2015-Jul-02 16:32N 44°07' E 009°51'0 0.0
2015-Jul-02 15:32N 44°07' E 009°51'0 0.0
2015-Jul-02 14:29N 44°07' E 009°51'0 0.0
2015-Jul-02 13:32N 44°07' E 009°51'0 0.0
2015-Jul-02 12:32N 44°07' E 009°51'0 0.0
2015-Jul-02 11:32N 44°07' E 009°51'0 0.0
2015-Jul-02 10:32N 44°07' E 009°51'0 0.0
2015-Jul-02 09:33N 44°07' E 009°51'4 3.6
2015-Jul-02 08:33N 44°03' E 009°52'8 7.6
2015-Jul-02 07:33N 43°56' E 009°51'9 9.5
2015-Jul-02 06:34N 43°50' E 009°40'10 9.8
2015-Jul-02 05:33N 43°45' E 009°28'1010.0
2015-Jul-02 04:33N 43°40' E 009°16'10 9.6
2015-Jul-02 03:33N 43°35' E 009°05'10 9.6
2015-Jul-02 02:33N 43°30' E 008°54'10 9.6
2015-Jul-02 01:33N 43°24' E 008°43'10 9.7
2015-Jul-02 00:33N 43°19' E 008°32'10 9.6
2015-Jul-01 23:33N 43°15' E 008°20'10 9.8
2015-Jul-01 22:33N 43°09' E 008°09'10 9.7
2015-Jul-01 21:33N 43°04' E 007°58'10 9.7
2015-Jul-01 20:33N 42°59' E 007°46'9 9.5
2015-Jul-01 19:33N 42°54' E 007°35'10 9.7
2015-Jul-01 18:33N 42°49' E 007°24'9 9.5
2015-Jul-01 17:33N 42°44' E 007°13'9 9.5
2015-Jul-01 16:33N 42°39' E 007°02'10 9.6
2015-Jul-01 15:34N 42°34' E 006°51'10 9.7
2015-Jul-01 14:33N 42°29' E 006°40'10 9.8
2015-Jul-01 13:33N 42°24' E 006°29'10 9.8
2015-Jul-01 12:33N 42°18' E 006°18'1010.1
2015-Jul-01 11:33N 42°12' E 006°07'10 9.8
2015-Jul-01 10:33N 42°08' E 005°55'1010.2
2015-Jul-01 09:33N 42°03' E 005°43'10 9.9
2015-Jul-01 08:33N 41°57' E 005°32'10 9.8
2015-Jul-01 07:33N 41°52' E 005°21'10 9.9
2015-Jul-01 06:33N 41°47' E 005°10'10 9.5
2015-Jul-01 05:33N 41°42' E 004°59'9 9.2
2015-Jul-01 04:33N 41°37' E 004°48'9 9.2
2015-Jul-01 03:33N 41°32' E 004°38'9 9.4
2015-Jul-01 02:34N 41°27' E 004°27'9 9.0
2015-Jul-01 01:34N 41°22' E 004°17'9 9.3
2015-Jul-01 00:33N 41°17' E 004°07'9 9.3
2015-Jun-30 23:33N 41°12' E 003°56'9 9.5
2015-Jun-30 22:33N 41°07' E 003°46'10 9.7
2015-Jun-30 21:33N 41°02' E 003°35'10 9.6
2015-Jun-30 20:33N 40°57' E 003°24'9 9.5
2015-Jun-30 19:33N 40°52' E 003°13'10 9.6
2015-Jun-30 18:33N 40°47' E 003°02'10 9.6
2015-Jun-30 17:33N 40°42' E 002°52'10 9.7
2015-Jun-30 16:33N 40°37' E 002°41'10 9.7
2015-Jun-30 15:33N 40°32' E 002°30'10 9.9
2015-Jun-30 14:33N 40°26' E 002°19'9 9.6
2015-Jun-30 13:33N 40°21' E 002°08'10 9.6
2015-Jun-30 12:33N 40°16' E 001°58'9 9.4
2015-Jun-30 11:33N 40°11' E 001°47'9 9.3
2015-Jun-30 10:34N 40°06' E 001°37'9 9.4
2015-Jun-30 09:33N 40°01' E 001°27'10 9.5
2015-Jun-30 08:33N 39°56' E 001°16'9 9.4
2015-Jun-30 07:33N 39°51' E 001°06'10 9.6
2015-Jun-30 06:33N 39°46' E 000°55'10 9.6
2015-Jun-30 05:33N 39°42' E 000°44'10 9.5
2015-Jun-30 04:33N 39°39' E 000°32'10 9.4
2015-Jun-30 03:32N 39°36' E 000°20'20 9.4
2015-Jun-30 01:27N 39°29' W 000°03'8 9.3
2015-Jun-30 00:33N 39°26' W 000°13'4 4.3
2015-Jun-29 23:33N 39°26' W 000°19'0 0.0
2015-Jun-29 22:33N 39°26' W 000°19'0 0.0
2015-Jun-29 21:30N 39°26' W 000°19'0 0.0
2015-Jun-29 20:33N 39°26' W 000°19'0 0.0
2015-Jun-29 19:33N 39°26' W 000°19'0 0.0
2015-Jun-29 18:33N 39°26' W 000°19'0 0.0
2015-Jun-29 17:33N 39°26' W 000°19'0 0.0
2015-Jun-29 16:33N 39°26' W 000°19'0 0.0
2015-Jun-29 15:33N 39°26' W 000°19'0 0.0
2015-Jun-29 14:33N 39°26' W 000°19'0 0.0
2015-Jun-29 13:33N 39°26' W 000°19'0 0.0
2015-Jun-29 12:33N 39°26' W 000°19'0 0.0
2015-Jun-29 11:33N 39°26' W 000°19'0 0.0
2015-Jun-29 10:33N 39°26' W 000°19'0 0.0
2015-Jun-29 09:33N 39°26' W 000°19'0 0.0
2015-Jun-29 08:33N 39°26' W 000°19'2 1.7
2015-Jun-29 07:28N 39°24' W 000°18'0 0.0
2015-Jun-29 06:19N 39°24' W 000°18'0 0.0
2015-Jun-29 04:31N 39°24' W 000°18'0 0.0
2015-Jun-29 02:31N 39°24' W 000°18'0 0.0
2015-Jun-28 23:22N 39°24' W 000°18'0 0.0
2015-Jun-28 20:31N 39°24' W 000°18'0 0.0
2015-Jun-28 18:31N 39°24' W 000°18'0 0.0
2015-Jun-28 17:28N 39°24' W 000°18'0 0.1
2015-Jun-28 16:31N 39°24' W 000°18'0 0.0
2015-Jun-28 15:25N 39°24' W 000°18'0 0.0
2015-Jun-28 14:28N 39°24' W 000°18'0 0.0
2015-Jun-28 13:31N 39°24' W 000°18'32 8.2
2015-Jun-28 09:33N 39°02' E 000°13'10 9.9
2015-Jun-28 08:32N 38°56' E 000°22'11 9.9
2015-Jun-28 07:26N 38°48' E 000°32'9 9.6
2015-Jun-28 06:33N 38°42' E 000°40'1110.2
2015-Jun-28 05:29N 38°34' E 000°50'1010.1
2015-Jun-28 04:32N 38°28' E 000°59'10 9.9
2015-Jun-28 03:33N 38°21' E 001°07'10 9.9
2015-Jun-28 02:33N 38°14' E 001°16'10 9.9
2015-Jun-28 01:33N 38°07' E 001°26'10 9.9
2015-Jun-28 00:33N 37°60' E 001°35'1010.0
2015-Jun-27 23:33N 37°53' E 001°44'10 9.8
2015-Jun-27 22:34N 37°46' E 001°53'10 9.8
2015-Jun-27 21:33N 37°39' E 002°01'10 9.6
2015-Jun-27 20:31N 37°33' E 002°11'13 9.6
2015-Jun-27 19:08N 37°23' E 002°22'6 9.7
2015-Jun-27 18:33N 37°19' E 002°28'10 9.7
2015-Jun-27 17:34N 37°13' E 002°37'9 9.2
2015-Jun-27 16:33N 37°06' E 002°45'1010.5
2015-Jun-27 15:34N 36°59' E 002°54'10 9.7
2015-Jun-27 14:34N 36°52' E 003°03'7 1.3
2015-Jun-27 09:26N 36°46' E 003°04'0 0.0
2015-Jun-27 07:14N 36°46' E 003°04'0 0.0
2015-Jun-27 06:32N 36°46' E 003°04'0 0.0
2015-Jun-27 04:29N 36°46' E 003°04'0 0.0
2015-Jun-27 03:29N 36°46' E 003°04'0 0.0
2015-Jun-27 02:26N 36°46' E 003°04'0 0.0
2015-Jun-27 01:29N 36°46' E 003°04'0 0.0
2015-Jun-27 00:32N 36°46' E 003°04'0 0.0
2015-Jun-26 16:23N 36°46' E 003°04'0 0.0
2015-Jun-26 15:32N 36°46' E 003°04'0 0.0
2015-Jun-26 13:32N 36°46' E 003°04'0 0.0
2015-Jun-26 12:32N 36°46' E 003°04'  
Track history (hours):
 
Tides and Currents Weather Stations Pressure Air Temp Water Temp Dewpoint Dewpoint Depression Visibility Wind Speed Wind Dir Waves Ship Positions

Green Fast

Last reported at 2015-Jul-04 18:33 UTC. Time now 2015-Jul-04 19:00 UTC.
Position N 43°25' E 004°50'.

Length 118 m; draft 6.5 m.

Type: Cargo ship. MMSI: 236294000.

Date/timePositionNaut miles runAvg speedWind from/ knotsBaromVisibWave heightAir tempDewpointWater temp
2015-Jul-04 18:33N 43°25' E 004°50'0 0.0
2015-Jul-04 17:33N 43°25' E 004°50'0 0.0
2015-Jul-04 16:33N 43°25' E 004°50'0 0.0
2015-Jul-04 15:33N 43°25' E 004°50'0 0.0
2015-Jul-04 14:33N 43°25' E 004°50'0 0.0
2015-Jul-04 13:33N 43°25' E 004°50'0 0.0
2015-Jul-04 12:33N 43°25' E 004°50'0 0.0
2015-Jul-04 11:33N 43°25' E 004°50'0 0.0
2015-Jul-04 10:33N 43°25' E 004°50'0 0.0
2015-Jul-04 09:33N 43°25' E 004°50'0 0.0
2015-Jul-04 08:33N 43°25' E 004°50'0 0.0
2015-Jul-04 07:33N 43°25' E 004°50'0 0.0
2015-Jul-04 06:33N 43°25' E 004°50'0 0.0
2015-Jul-04 05:33N 43°25' E 004°50'0 0.0
2015-Jul-04 04:33N 43°25' E 004°50'0 0.4
2015-Jul-04 03:33N 43°25' E 004°51'7 7.5
2015-Jul-04 02:33N 43°20' E 004°59'8 8.3
2015-Jul-04 01:33N 43°12' E 005°03'8 8.4
2015-Jul-04 00:33N 43°08' E 005°13'8 8.3
2015-Jul-03 23:33N 43°04' E 005°23'8 8.1
2015-Jul-03 22:33N 43°01' E 005°33'8 8.1
2015-Jul-03 21:33N 42°57' E 005°43'8 8.0
2015-Jul-03 20:33N 42°54' E 005°53'8 8.2
2015-Jul-03 19:33N 42°50' E 006°03'8 8.4
2015-Jul-03 18:33N 42°47' E 006°13'8 8.2
2015-Jul-03 17:33N 42°46' E 006°24'8 7.9
2015-Jul-03 16:33N 42°49' E 006°35'8 8.3
2015-Jul-03 15:33N 42°54' E 006°44'8 8.2
2015-Jul-03 14:33N 42°59' E 006°53'8 8.3
2015-Jul-03 13:33N 43°04' E 007°02'8 8.3
2015-Jul-03 12:33N 43°09' E 007°11'8 8.3
2015-Jul-03 11:33N 43°14' E 007°20'8 8.4
2015-Jul-03 10:33N 43°18' E 007°30'8 8.5
2015-Jul-03 09:33N 43°23' E 007°39'8 8.3
2015-Jul-03 08:33N 43°28' E 007°48'8 8.4
2015-Jul-03 07:33N 43°31' E 007°59'8 8.4
2015-Jul-03 06:33N 43°34' E 008°10'9 8.9
2015-Jul-03 05:33N 43°37' E 008°22'9 8.8
2015-Jul-03 04:33N 43°40' E 008°33'9 9.0
2015-Jul-03 03:33N 43°43' E 008°45'9 8.7
2015-Jul-03 02:33N 43°46' E 008°56'8 8.2
2015-Jul-03 01:33N 43°48' E 009°07'8 8.1
2015-Jul-03 00:33N 43°51' E 009°18'8 7.9
2015-Jul-02 23:33N 43°53' E 009°28'8 8.3
2015-Jul-02 22:33N 43°56' E 009°39'8 8.4
2015-Jul-02 21:33N 43°59' E 009°50'7 7.0
2015-Jul-02 20:33N 44°06' E 009°51'0 0.1
2015-Jul-02 19:32N 44°07' E 009°51'0 0.0
2015-Jul-02 18:32N 44°07' E 009°51'0 0.0
2015-Jul-02 17:32N 44°07' E 009°51'0 0.0
2015-Jul-02 16:32N 44°07' E 009°51'0 0.0
2015-Jul-02 15:32N 44°07' E 009°51'0 0.0
2015-Jul-02 14:29N 44°07' E 009°51'0 0.0
2015-Jul-02 13:32N 44°07' E 009°51'0 0.0
2015-Jul-02 12:32N 44°07' E 009°51'0 0.0
2015-Jul-02 11:32N 44°07' E 009°51'0 0.0
2015-Jul-02 10:32N 44°07' E 009°51'0 0.0
2015-Jul-02 09:33N 44°07' E 009°51'4 3.6
2015-Jul-02 08:33N 44°03' E 009°52'8 7.6
2015-Jul-02 07:33N 43°56' E 009°51'9 9.5
2015-Jul-02 06:34N 43°50' E 009°40'10 9.8
2015-Jul-02 05:33N 43°45' E 009°28'1010.0
2015-Jul-02 04:33N 43°40' E 009°16'10 9.6
2015-Jul-02 03:33N 43°35' E 009°05'10 9.6
2015-Jul-02 02:33N 43°30' E 008°54'10 9.6
2015-Jul-02 01:33N 43°24' E 008°43'10 9.7
2015-Jul-02 00:33N 43°19' E 008°32'10 9.6
2015-Jul-01 23:33N 43°15' E 008°20'10 9.8
2015-Jul-01 22:33N 43°09' E 008°09'10 9.7
2015-Jul-01 21:33N 43°04' E 007°58'10 9.7
2015-Jul-01 20:33N 42°59' E 007°46'9 9.5
2015-Jul-01 19:33N 42°54' E 007°35'10 9.7
2015-Jul-01 18:33N 42°49' E 007°24'9 9.5
2015-Jul-01 17:33N 42°44' E 007°13'9 9.5
2015-Jul-01 16:33N 42°39' E 007°02'10 9.6
2015-Jul-01 15:34N 42°34' E 006°51'10 9.7
2015-Jul-01 14:33N 42°29' E 006°40'10 9.8
2015-Jul-01 13:33N 42°24' E 006°29'10 9.8
2015-Jul-01 12:33N 42°18' E 006°18'1010.1
2015-Jul-01 11:33N 42°12' E 006°07'10 9.8
2015-Jul-01 10:33N 42°08' E 005°55'1010.2
2015-Jul-01 09:33N 42°03' E 005°43'10 9.9
2015-Jul-01 08:33N 41°57' E 005°32'10 9.8
2015-Jul-01 07:33N 41°52' E 005°21'10 9.9
2015-Jul-01 06:33N 41°47' E 005°10'10 9.5
2015-Jul-01 05:33N 41°42' E 004°59'9 9.2
2015-Jul-01 04:33N 41°37' E 004°48'9 9.2
2015-Jul-01 03:33N 41°32' E 004°38'9 9.4
2015-Jul-01 02:34N 41°27' E 004°27'9 9.0
2015-Jul-01 01:34N 41°22' E 004°17'9 9.3
2015-Jul-01 00:33N 41°17' E 004°07'9 9.3
2015-Jun-30 23:33N 41°12' E 003°56'9 9.5
2015-Jun-30 22:33N 41°07' E 003°46'10 9.7
2015-Jun-30 21:33N 41°02' E 003°35'10 9.6
2015-Jun-30 20:33N 40°57' E 003°24'9 9.5
2015-Jun-30 19:33N 40°52' E 003°13'10 9.6
2015-Jun-30 18:33N 40°47' E 003°02'10 9.6
2015-Jun-30 17:33N 40°42' E 002°52'10 9.7
2015-Jun-30 16:33N 40°37' E 002°41'10 9.7
2015-Jun-30 15:33N 40°32' E 002°30'10 9.9
2015-Jun-30 14:33N 40°26' E 002°19'9 9.6
2015-Jun-30 13:33N 40°21' E 002°08'10 9.6
2015-Jun-30 12:33N 40°16' E 001°58'9 9.4
2015-Jun-30 11:33N 40°11' E 001°47'9 9.3
2015-Jun-30 10:34N 40°06' E 001°37'9 9.4
2015-Jun-30 09:33N 40°01' E 001°27'10 9.5
2015-Jun-30 08:33N 39°56' E 001°16'9 9.4
2015-Jun-30 07:33N 39°51' E 001°06'10 9.6
2015-Jun-30 06:33N 39°46' E 000°55'10 9.6
2015-Jun-30 05:33N 39°42' E 000°44'10 9.5
2015-Jun-30 04:33N 39°39' E 000°32'10 9.4
2015-Jun-30 03:32N 39°36' E 000°20'20 9.4
2015-Jun-30 01:27N 39°29' W 000°03'8 9.3
2015-Jun-30 00:33N 39°26' W 000°13'4 4.3
2015-Jun-29 23:33N 39°26' W 000°19'0 0.0
2015-Jun-29 22:33N 39°26' W 000°19'0 0.0
2015-Jun-29 21:30N 39°26' W 000°19'0 0.0
2015-Jun-29 20:33N 39°26' W 000°19'0 0.0
2015-Jun-29 19:33N 39°26' W 000°19'0 0.0
2015-Jun-29 18:33N 39°26' W 000°19'0 0.0
2015-Jun-29 17:33N 39°26' W 000°19'0 0.0
2015-Jun-29 16:33N 39°26' W 000°19'0 0.0
2015-Jun-29 15:33N 39°26' W 000°19'0 0.0
2015-Jun-29 14:33N 39°26' W 000°19'0 0.0
2015-Jun-29 13:33N 39°26' W 000°19'0 0.0
2015-Jun-29 12:33N 39°26' W 000°19'0 0.0
2015-Jun-29 11:33N 39°26' W 000°19'0 0.0
2015-Jun-29 10:33N 39°26' W 000°19'0 0.0
2015-Jun-29 09:33N 39°26' W 000°19'0 0.0
2015-Jun-29 08:33N 39°26' W 000°19'2 1.7
2015-Jun-29 07:28N 39°24' W 000°18'0 0.0
2015-Jun-29 06:19N 39°24' W 000°18'0 0.0
2015-Jun-29 04:31N 39°24' W 000°18'0 0.0
2015-Jun-29 02:31N 39°24' W 000°18'0 0.0
2015-Jun-28 23:22N 39°24' W 000°18'0 0.0
2015-Jun-28 20:31N 39°24' W 000°18'0 0.0
2015-Jun-28 18:31N 39°24' W 000°18'0 0.0
2015-Jun-28 17:28N 39°24' W 000°18'0 0.1
2015-Jun-28 16:31N 39°24' W 000°18'0 0.0
2015-Jun-28 15:25N 39°24' W 000°18'0 0.0
2015-Jun-28 14:28N 39°24' W 000°18'0 0.0
2015-Jun-28 13:31N 39°24' W 000°18'32 8.2
2015-Jun-28 09:33N 39°02' E 000°13'10 9.9
2015-Jun-28 08:32N 38°56' E 000°22'11 9.9
2015-Jun-28 07:26N 38°48' E 000°32'9 9.6
2015-Jun-28 06:33N 38°42' E 000°40'1110.2
2015-Jun-28 05:29N 38°34' E 000°50'1010.1
2015-Jun-28 04:32N 38°28' E 000°59'10 9.9
2015-Jun-28 03:33N 38°21' E 001°07'10 9.9
2015-Jun-28 02:33N 38°14' E 001°16'10 9.9
2015-Jun-28 01:33N 38°07' E 001°26'10 9.9
2015-Jun-28 00:33N 37°60' E 001°35'1010.0
2015-Jun-27 23:33N 37°53' E 001°44'10 9.8
2015-Jun-27 22:34N 37°46' E 001°53'10 9.8
2015-Jun-27 21:33N 37°39' E 002°01'10 9.6
2015-Jun-27 20:31N 37°33' E 002°11'13 9.6
2015-Jun-27 19:08N 37°23' E 002°22'6 9.7
2015-Jun-27 18:33N 37°19' E 002°28'10 9.7
2015-Jun-27 17:34N 37°13' E 002°37'9 9.2
2015-Jun-27 16:33N 37°06' E 002°45'1010.5
2015-Jun-27 15:34N 36°59' E 002°54'10 9.7
2015-Jun-27 14:34N 36°52' E 003°03'7 1.3
2015-Jun-27 09:26N 36°46' E 003°04'0 0.0
2015-Jun-27 07:14N 36°46' E 003°04'0 0.0
2015-Jun-27 06:32N 36°46' E 003°04'0 0.0
2015-Jun-27 04:29N 36°46' E 003°04'0 0.0
2015-Jun-27 03:29N 36°46' E 003°04'0 0.0
2015-Jun-27 02:26N 36°46' E 003°04'0 0.0
2015-Jun-27 01:29N 36°46' E 003°04'0 0.0
2015-Jun-27 00:32N 36°46' E 003°04'0 0.0
2015-Jun-26 16:23N 36°46' E 003°04'0 0.0
2015-Jun-26 15:32N 36°46' E 003°04'0 0.0
2015-Jun-26 13:32N 36°46' E 003°04'0 0.0
2015-Jun-26 12:32N 36°46' E 003°04'  

Dump ship's entire track history